Rena Lara, MS

11:08 AM CDT on July 28, 2014 (GMT -0500)
Clarksdale (KMSCLARK2) Elev 164 ft | 34.10 °N, 90.61 °W | Change Station

Current weather conditions updated 0 second ago

Clear
Clear
82.8 °F
Feels Like 86 °F
N
5.0
Wind Variable Wind from NNW
Gusts 7.0 mph

Today is forecast to be Cooler than yesterday.

Today
High -- | Low -- °F
--% Chance of Precip.
Yesterday
High -- | Low -- °F
Precip. -- in
6:11 AM 8:07 PM
Waxing Crescent, 3% visible
Pressure 30.10 in
Visibility 10.0 miles
Clouds Clear
Heat Index 86 °F
Dew Point 69 °F
Humidity 63%
Rainfall 0.00 in
Snow Depth Not available.
UV 9 out of 12
Pollen 6.20 out of 12
Air Quality Not available.
Flu Activity Not available.
METAR KCKM 281555Z AUTO 34008KT 10SM CLR 28/19 A3010 RMK AO1

More Conditions Fewer Conditions

Pressure 30.10 in
Visibility 10.0 miles
Clouds Clear
Heat Index 86 °F
Dew Point 69 °F
Humidity 63%
Rainfall 0.00 in
Snow Depth Not available.
UV 9 out of 12
Pollen 6.20 out of 12
Air Quality Not available.
Flu Activity Not available.
METAR KCKM 281555Z AUTO 34008KT 10SM CLR 28/19 A3010 RMK AO1

More Conditions Fewer Conditions

10-Day Weather Forecast

Almanac

Astronomy

Jul. 28, 2014 Rise Set
Actual Time 6:11 AM CDT 8:07 PM CDT
Civil Twilight 5:43 AM CDT 8:35 PM CDT
Nautical Twilight 5:10 AM CDT 9:08 PM CDT
Astronomical Twilight 4:34 AM CDT 9:44 PM CDT
Moon 7:46 AM CDT 8:57 PM CDT
Length of Visible Light 14h 51m
Length of Day
13h 55m
Tomorrow will be 1m 30s shorter.
Waxing Crescent, 3% of the Moon is Illuminated
Today
Waxing Crescent
Aug 3
First Quarter
Aug 10
Full
Aug 17
Last Quarter
Aug 25
New

Today's Extremes

State Highs State Lows

Community

WunderPhotos

Upload Photos

1,738,400 photos uploaded!

WunderBlogs® & News

Nearby

Snow Depth

Station Depth Elevation
No new snow has been reported.

Earthquake Activity

City Distance Mag. Time & Date
No recent earthquake activity has been reported nearby.
Minimum magnitude displayed is 2.5.

Coastal Water Temperatures

Place Temperature
No Stations Reporting

Nearby Weather Stations

Station Location Temp. Heat Index Dew Point Humidity Wind Precip. Elev Updated Type
Clarksdale, Clarksdale, MS 82.8 °F 86 °F 69 °F 63% NNW  at  5.0 mph 0.00 in / hr 164 ft 11:08 AM CDT Rapid Fire

Show More Stations Show Fewer Stations